Time;durP1;ratioP1;P1;durP2;ratioP2;P2;SDS_P1;SDS_P2;PMS_P1;PMS_P2;Temp;Humidity;BMP_temperature;BMP_pressure;BME280_temperature;BME280_humidity;BME280_pressure;Samples;Min_cycle;Max_cycle;Signal;HPM_P1;HPM_P2
2021/06/16 00:01:49;;;;;;;2.33;1.65;;;22.90;66.20;;;;;;5132815;28;20479;-65
2021/06/16 00:04:15;;;;;;;2.85;1.70;;;22.90;66.20;;;;;;5133114;28;20043;-65
2021/06/16 00:06:41;;;;;;;3.72;1.92;;;22.90;66.20;;;;;;5133260;28;20096;-64
2021/06/16 00:09:06;;;;;;;3.10;1.60;;;22.80;66.20;;;;;;5133229;28;20050;-66
2021/06/16 00:11:35;;;;;;;3.92;1.70;;;22.90;66.30;;;;;;5133037;28;20111;-57
2021/06/16 00:14:01;;;;;;;3.92;1.70;;;22.90;66.30;;;;;;5132971;28;20126;-63
2021/06/16 00:16:28;;;;;;;2.55;1.58;;;22.80;66.30;;;;;;5133122;28;20046;-60
2021/06/16 00:18:54;;;;;;;3.08;1.50;;;22.80;66.30;;;;;;5132790;28;20694;-58
2021/06/16 00:21:22;;;;;;;1.80;1.60;;;22.90;66.30;;;;;;5133246;28;20064;-62
2021/06/16 00:23:48;;;;;;;1.92;1.48;;;22.90;66.30;;;;;;5133409;28;20039;-60
2021/06/16 00:26:15;;;;;;;3.05;1.60;;;22.80;66.30;;;;;;5133261;28;20047;-58
2021/06/16 00:28:42;;;;;;;2.38;1.60;;;22.80;66.30;;;;;;5132965;28;20047;-61
2021/06/16 00:31:07;;;;;;;1.90;1.50;;;22.80;66.40;;;;;;5135463;27;20411;-57
2021/06/16 00:33:33;;;;;;;1.88;1.40;;;22.80;66.40;;;;;;5136267;27;20043;-64
2021/06/16 00:35:59;;;;;;;2.80;1.58;;;22.80;66.30;;;;;;5136729;27;20107;-56
2021/06/16 00:38:28;;;;;;;3.33;1.40;;;22.80;66.40;;;;;;5136917;27;20114;-57
2021/06/16 00:40:56;;;;;;;2.60;1.30;;;22.80;66.40;;;;;;5136847;27;20082;-64
2021/06/16 00:43:21;;;;;;;2.38;1.38;;;22.80;66.40;;;;;;5136677;27;20384;-59
2021/06/16 00:45:47;;;;;;;1.35;1.23;;;22.80;66.40;;;;;;5136606;27;20077;-58
2021/06/16 00:48:13;;;;;;;3.42;1.70;;;22.80;66.40;;;;;;5136101;27;20067;-57
2021/06/16 00:50:39;;;;;;;1.92;1.45;;;22.80;66.50;;;;;;5136660;27;20506;-64
2021/06/16 00:53:06;;;;;;;1.77;1.50;;;22.80;66.40;;;;;;5136492;27;20126;-57
2021/06/16 00:55:37;;;;;;;2.10;1.50;;;22.80;66.40;;;;;;5136291;27;20043;-63
2021/06/16 00:58:03;;;;;;;1.67;1.35;;;22.80;66.50;;;;;;5136557;27;20129;-60
2021/06/16 01:00:51;;;;;;;2.22;1.40;;;22.80;66.50;;;;;;5136405;27;20047;-66
2021/06/16 01:03:28;;;;;;;2.67;1.40;;;22.80;66.60;;;;;;5136242;27;20043;-64
2021/06/16 01:06:19;;;;;;;2.65;1.77;;;22.80;66.50;;;;;;5136194;27;20486;-65
2021/06/16 01:09:17;;;;;;;2.30;1.60;;;22.80;66.50;;;;;;5136191;27;20325;-65
2021/06/16 01:12:02;;;;;;;2.08;1.58;;;22.80;66.60;;;;;;5135269;27;20135;-59
2021/06/16 01:14:30;;;;;;;;;;;22.70;66.50;;;;;;5136609;27;20071;-63
2021/06/16 01:16:59;;;;;;;2.28;1.60;;;22.80;66.50;;;;;;5136161;27;19920;-60
2021/06/16 01:19:59;;;;;;;2.28;1.50;;;22.70;66.60;;;;;;5135604;27;20475;-58
2021/06/16 01:22:48;;;;;;;2.33;1.65;;;22.70;66.50;;;;;;5136001;27;20451;-60
2021/06/16 01:25:17;;;;;;;1.73;1.35;;;22.70;66.50;;;;;;5135819;27;20047;-59
2021/06/16 01:27:43;;;;;;;1.60;1.50;;;22.70;66.60;;;;;;5135945;27;20047;-57
2021/06/16 01:30:09;;;;;;;2.70;1.40;;;22.70;66.60;;;;;;5135736;27;20075;-60
2021/06/16 01:32:36;;;;;;;1.80;1.48;;;22.70;66.60;;;;;;5135741;27;20046;-58
2021/06/16 01:35:02;;;;;;;2.35;1.75;;;22.70;66.60;;;;;;5135341;27;20066;-57
2021/06/16 01:37:28;;;;;;;1.63;1.33;;;22.70;66.70;;;;;;5135723;27;20164;-62
2021/06/16 01:39:56;;;;;;;2.85;1.67;;;22.70;66.70;;;;;;5135594;27;20502;-66
2021/06/16 01:42:26;;;;;;;3.60;1.65;;;22.70;66.70;;;;;;5135120;27;20100;-64
2021/06/16 01:44:53;;;;;;;2.22;1.38;;;22.70;66.70;;;;;;5135312;27;20117;-59
2021/06/16 01:47:23;;;;;;;2.53;1.48;;;22.70;66.80;;;;;;5135550;27;20050;-66
2021/06/16 01:49:53;;;;;;;2.53;1.50;;;22.70;66.80;;;;;;5135575;27;20058;-62
2021/06/16 01:52:23;;;;;;;2.33;1.70;;;22.70;66.80;;;;;;5134748;27;20051;-62
2021/06/16 01:54:49;;;;;;;2.45;1.40;;;22.70;66.80;;;;;;5135209;27;20074;-62
2021/06/16 01:57:16;;;;;;;2.72;1.60;;;22.70;66.80;;;;;;5135308;27;20043;-57
2021/06/16 01:59:45;;;;;;;2.00;1.50;;;22.60;66.80;;;;;;5135128;27;20096;-62
2021/06/16 02:02:10;;;;;;;2.50;1.50;;;22.70;67.50;;;;;;5135204;27;20043;-61
2021/06/16 02:04:37;;;;;;;1.85;1.20;;;22.70;66.80;;;;;;5135099;27;20165;-65
2021/06/16 02:07:25;;;;;;;3.30;1.50;;;22.70;66.80;;;;;;5134675;27;20077;-66
2021/06/16 02:09:53;;;;;;;1.40;1.25;;;22.70;66.80;;;;;;5134863;27;20054;-65
2021/06/16 02:12:20;;;;;;;2.08;1.55;;;22.70;66.80;;;;;;5134876;27;20050;-58
2021/06/16 02:14:57;;;;;;;2.17;1.35;;;22.70;66.80;;;;;;5135319;27;20134;-62
2021/06/16 02:17:28;;;;;;;2.45;1.35;;;22.60;66.80;;;;;;5135201;27;20051;-60
2021/06/16 02:19:54;;;;;;;3.33;1.42;;;22.70;66.80;;;;;;5135080;27;20043;-66
2021/06/16 02:22:23;;;;;;;1.90;1.60;;;22.70;66.80;;;;;;5134374;27;20483;-66
2021/06/16 02:24:49;;;;;;;2.30;1.42;;;22.60;66.80;;;;;;5134606;27;20499;-66
2021/06/16 02:27:15;;;;;;;2.58;1.30;;;22.70;66.80;;;;;;5134738;27;20127;-59
2021/06/16 02:29:41;;;;;;;2.75;1.65;;;22.60;66.80;;;;;;5134690;27;20051;-62
2021/06/16 02:32:07;;;;;;;4.20;2.30;;;22.60;66.80;;;;;;5134645;27;20039;-65
2021/06/16 02:34:33;;;;;;;2.85;1.70;;;22.60;66.80;;;;;;5134546;27;20051;-65
2021/06/16 02:37:03;;;;;;;1.55;1.20;;;22.70;66.80;;;;;;5134787;27;20062;-65
2021/06/16 02:39:40;;;;;;;3.40;1.25;;;22.60;66.80;;;;;;5134017;27;20051;-66
2021/06/16 02:42:07;;;;;;;1.67;1.35;;;22.60;66.80;;;;;;5134679;27;20058;-62
2021/06/16 02:44:34;;;;;;;2.50;1.48;;;22.60;66.80;;;;;;5134393;27;20453;-66
2021/06/16 02:47:01;;;;;;;2.05;1.35;;;22.60;66.80;;;;;;5134460;27;20046;-61
2021/06/16 02:49:33;;;;;;;3.75;1.55;;;22.60;66.80;;;;;;5134308;27;20114;-66
2021/06/16 02:52:01;;;;;;;2.10;1.40;;;22.60;66.80;;;;;;5133733;27;20093;-60
2021/06/16 02:54:30;;;;;;;1.73;1.40;;;22.60;66.80;;;;;;5132894;27;20043;-60
2021/06/16 02:56:59;;;;;;;3.17;1.33;;;22.60;66.80;;;;;;5133718;27;20047;-54
2021/06/16 02:59:28;;;;;;;2.30;1.42;;;22.60;66.90;;;;;;5133179;27;20039;-53
2021/06/16 03:01:54;;;;;;;1.33;1.23;;;22.60;66.90;;;;;;5133682;27;20047;-59
2021/06/16 03:04:22;;;;;;;3.13;1.40;;;22.60;66.90;;;;;;5134153;27;20074;-57
2021/06/16 03:06:50;;;;;;;2.33;1.13;;;22.60;66.90;;;;;;5133889;27;20053;-57
2021/06/16 03:09:18;;;;;;;1.80;1.27;;;22.60;66.90;;;;;;5133682;27;20099;-58
2021/06/16 03:11:44;;;;;;;1.98;1.40;;;22.60;66.90;;;;;;5133939;27;20035;-68
2021/06/16 03:14:11;;;;;;;1.75;1.42;;;22.60;66.90;;;;;;5134105;27;20073;-65
2021/06/16 03:16:37;;;;;;;1.50;1.10;;;22.60;67.00;;;;;;5133960;27;20063;-60
2021/06/16 03:19:07;;;;;;;3.88;1.30;;;22.50;66.90;;;;;;5133900;27;20491;-58
2021/06/16 03:21:34;;;;;;;2.33;1.45;;;22.50;66.90;;;;;;5133948;27;20055;-59
2021/06/16 03:24:00;;;;;;;2.22;1.58;;;22.50;66.90;;;;;;5133651;27;20042;-61
2021/06/16 03:26:27;;;;;;;1.85;1.52;;;22.50;67.00;;;;;;5133770;27;20051;-65
2021/06/16 03:28:55;;;;;;;2.22;1.30;;;22.60;66.90;;;;;;5134235;27;20109;-66
2021/06/16 03:31:21;;;;;;;1.92;1.50;;;22.50;67.00;;;;;;5115317;27;20444;-65
2021/06/16 03:33:48;;;;;;;2.15;1.38;;;22.50;66.90;;;;;;5133582;27;20046;-57
2021/06/16 03:36:16;;;;;;;1.98;1.35;;;22.50;67.00;;;;;;5133322;27;20125;-57
2021/06/16 03:38:43;;;;;;;1.98;1.20;;;22.50;67.00;;;;;;5133558;27;20457;-59
2021/06/16 03:41:13;;;;;;;2.83;1.38;;;22.50;67.00;;;;;;5133191;27;20053;-59
2021/06/16 03:43:41;;;;;;;2.33;1.75;;;22.50;67.00;;;;;;5133500;27;20509;-57
2021/06/16 03:46:08;;;;;;;1.88;1.35;;;22.50;67.00;;;;;;5133308;28;20044;-61
2021/06/16 03:48:36;;;;;;;2.08;1.20;;;22.50;67.00;;;;;;5133515;28;20078;-58
2021/06/16 03:51:04;;;;;;;1.83;1.20;;;22.50;67.00;;;;;;5133388;28;20043;-57
2021/06/16 03:53:30;;;;;;;2.15;1.20;;;22.50;67.10;;;;;;5133402;28;20497;-66
2021/06/16 03:55:57;;;;;;;1.60;1.40;;;22.50;67.00;;;;;;5133250;28;20518;-59
2021/06/16 03:58:24;;;;;;;2.30;1.17;;;22.50;67.00;;;;;;5133371;28;20485;-66
2021/06/16 04:00:51;;;;;;;2.88;1.48;;;22.50;67.10;;;;;;5133396;28;20046;-56
2021/06/16 04:03:17;;;;;;;1.45;1.27;;;22.50;67.00;;;;;;5133212;28;20062;-59
2021/06/16 04:05:43;;;;;;;1.33;1.23;;;22.50;67.10;;;;;;5136845;27;20051;-58
2021/06/16 04:08:11;;;;;;;2.20;1.50;;;22.50;67.10;;;;;;5137436;27;20058;-61
2021/06/16 04:10:37;;;;;;;2.05;1.55;;;22.50;67.10;;;;;;5137178;27;20046;-61
2021/06/16 04:13:05;;;;;;;1.92;1.15;;;22.50;67.10;;;;;;5136771;27;20050;-57
2021/06/16 04:15:31;;;;;;;1.10;1.00;;;22.50;67.10;;;;;;5137309;27;20063;-65
2021/06/16 04:17:59;;;;;;;1.23;1.05;;;22.50;67.10;;;;;;5137042;27;20522;-63
2021/06/16 04:20:26;;;;;;;1.15;1.05;;;22.50;67.10;;;;;;5137284;27;20051;-58
2021/06/16 04:22:52;;;;;;;2.25;1.23;;;22.50;67.10;;;;;;5137051;27;20050;-63
2021/06/16 04:25:18;;;;;;;1.48;1.20;;;22.50;67.10;;;;;;5137037;27;20456;-61
2021/06/16 04:27:44;;;;;;;2.60;1.40;;;22.50;67.10;;;;;;5136500;27;20392;-64
2021/06/16 04:30:12;;;;;;;2.10;1.48;;;22.40;67.10;;;;;;5136862;27;20398;-57
2021/06/16 04:32:38;;;;;;;1.75;1.20;;;22.50;67.20;;;;;;5136791;27;20043;-58
2021/06/16 04:35:07;;;;;;;1.88;1.30;;;22.40;67.10;;;;;;5136469;27;20100;-59
2021/06/16 04:37:33;;;;;;;1.83;1.38;;;22.50;67.20;;;;;;5136814;27;20073;-57
2021/06/16 04:39:59;;;;;;;1.55;1.30;;;22.50;67.20;;;;;;5136861;27;20047;-57
2021/06/16 04:42:25;;;;;;;1.67;1.27;;;22.50;67.20;;;;;;5136232;27;20047;-63
2021/06/16 04:44:50;;;;;;;1.95;1.20;;;22.40;67.20;;;;;;5136648;27;20053;-60
2021/06/16 04:47:16;;;;;;;1.88;1.45;;;22.40;67.20;;;;;;5136581;27;20479;-57
2021/06/16 04:49:42;;;;;;;4.05;1.50;;;22.40;67.20;;;;;;5136553;27;20143;-64
2021/06/16 04:52:08;;;;;;;2.03;1.27;;;22.40;67.20;;;;;;5136437;27;20508;-56
2021/06/16 04:54:34;;;;;;;2.03;1.40;;;22.40;67.20;;;;;;5136801;27;20122;-58
2021/06/16 04:57:04;;;;;;;2.20;1.13;;;22.40;67.20;;;;;;5136559;27;20470;-56
2021/06/16 04:59:31;;;;;;;1.88;1.50;;;22.40;67.30;;;;;;5135824;27;20051;-58
2021/06/16 05:01:56;;;;;;;1.73;1.27;;;22.40;67.30;;;;;;5136461;27;20150;-58
2021/06/16 05:04:22;;;;;;;1.90;1.50;;;22.40;67.30;;;;;;5136196;27;20493;-60
2021/06/16 05:06:48;;;;;;;1.63;1.20;;;22.40;67.20;;;;;;5136415;27;20490;-57
2021/06/16 05:09:13;;;;;;;1.45;1.25;;;22.40;67.30;;;;;;5136261;27;20067;-57
2021/06/16 05:11:39;;;;;;;1.30;1.20;;;22.40;67.20;;;;;;5136329;27;20043;-57
2021/06/16 05:14:05;;;;;;;2.00;1.40;;;22.40;67.30;;;;;;5136270;27;20051;-58
2021/06/16 05:16:31;;;;;;;2.20;1.23;;;22.40;67.30;;;;;;5135529;27;20053;-56
2021/06/16 05:18:58;;;;;;;1.65;1.15;;;22.40;67.20;;;;;;5136106;27;20047;-56
2021/06/16 05:21:25;;;;;;;1.30;1.05;;;22.40;67.30;;;;;;5136142;27;20225;-58
2021/06/16 05:23:51;;;;;;;1.30;1.20;;;22.40;67.30;;;;;;5135767;27;20071;-59
2021/06/16 05:26:17;;;;;;;1.92;1.27;;;22.40;67.30;;;;;;5135934;27;20047;-60
2021/06/16 05:28:43;;;;;;;2.42;1.45;;;22.40;67.30;;;;;;5135576;27;20046;-59
2021/06/16 05:31:10;;;;;;;2.05;1.30;;;22.40;67.30;;;;;;5135702;27;20560;-57
2021/06/16 05:33:37;;;;;;;1.38;1.08;;;22.40;67.30;;;;;;5135409;27;20403;-60
2021/06/16 05:36:04;;;;;;;2.00;1.38;;;22.40;67.30;;;;;;5117043;27;20051;-60
2021/06/16 05:38:30;;;;;;;2.22;1.20;;;22.40;67.30;;;;;;5135480;27;20096;-57
2021/06/16 05:40:56;;;;;;;1.75;1.30;;;22.40;67.30;;;;;;5135662;27;20043;-59
2021/06/16 05:43:22;;;;;;;3.00;1.60;;;22.40;67.40;;;;;;5135489;27;20508;-55
2021/06/16 05:45:48;;;;;;;1.30;1.20;;;22.40;67.30;;;;;;5135094;27;20043;-55
2021/06/16 05:48:14;;;;;;;1.23;1.02;;;22.40;67.30;;;;;;5135491;27;20050;-54
2021/06/16 05:50:40;;;;;;;2.72;1.40;;;22.40;67.40;;;;;;5135372;27;20399;-55
2021/06/16 05:53:08;;;;;;;1.58;1.30;;;22.40;67.40;;;;;;5135296;27;20071;-64
2021/06/16 05:55:33;;;;;;;1.50;1.40;;;22.40;67.30;;;;;;5135500;27;20039;-62
2021/06/16 05:57:59;;;;;;;2.90;1.63;;;22.40;67.40;;;;;;5135632;27;20403;-56
2021/06/16 06:00:25;;;;;;;1.75;1.20;;;22.40;67.40;;;;;;5134918;27;20043;-54
2021/06/16 06:02:51;;;;;;;1.33;1.08;;;22.40;67.40;;;;;;5135052;27;20505;-56
2021/06/16 06:05:18;;;;;;;2.05;1.33;;;22.40;67.40;;;;;;5134862;27;20544;-56
2021/06/16 06:07:44;;;;;;;2.67;1.50;;;22.40;67.40;;;;;;5135140;27;20051;-55
2021/06/16 06:10:10;;;;;;;2.42;1.20;;;22.40;67.40;;;;;;5135009;27;20047;-63
2021/06/16 06:12:35;;;;;;;1.95;1.35;;;22.40;67.40;;;;;;5134836;27;20078;-55
2021/06/16 06:15:01;;;;;;;1.77;1.20;;;22.40;67.40;;;;;;5135016;27;20043;-57
2021/06/16 06:17:27;;;;;;;1.30;1.20;;;22.40;67.40;;;;;;5134614;27;20491;-55
2021/06/16 06:19:53;;;;;;;1.73;1.42;;;22.40;67.40;;;;;;5134586;27;20047;-54
2021/06/16 06:22:19;;;;;;;1.27;1.15;;;22.40;67.40;;;;;;5134686;27;20387;-54
2021/06/16 06:24:46;;;;;;;1.58;1.08;;;22.40;67.40;;;;;;5134615;27;20127;-58
2021/06/16 06:27:11;;;;;;;1.67;1.45;;;22.40;67.40;;;;;;5134727;27;20441;-60
2021/06/16 06:29:37;;;;;;;1.83;1.33;;;22.40;67.40;;;;;;5134695;27;20047;-56
2021/06/16 06:32:03;;;;;;;2.35;1.17;;;22.40;67.40;;;;;;5134214;27;20039;-56
2021/06/16 06:34:29;;;;;;;1.48;1.10;;;22.40;67.40;;;;;;5134262;27;20078;-59
2021/06/16 06:36:54;;;;;;;1.55;1.15;;;22.40;67.40;;;;;;5134454;27;20150;-56
2021/06/16 06:39:20;;;;;;;2.10;1.45;;;22.40;67.40;;;;;;5134383;27;20039;-55
2021/06/16 06:41:46;;;;;;;1.48;1.10;;;22.40;67.40;;;;;;5134355;27;20380;-59
2021/06/16 06:44:11;;;;;;;1.67;1.10;;;22.40;67.40;;;;;;5133996;27;20051;-55
2021/06/16 06:46:37;;;;;;;2.90;1.35;;;22.40;67.40;;;;;;5134211;27;20042;-54
2021/06/16 06:49:03;;;;;;;1.58;1.25;;;22.40;67.40;;;;;;5133680;27;20043;-60
2021/06/16 06:51:28;;;;;;;2.42;1.17;;;22.40;67.40;;;;;;5133934;27;20125;-55
2021/06/16 06:53:54;;;;;;;1.65;1.10;;;22.40;67.40;;;;;;5133943;27;20046;-56
2021/06/16 06:56:20;;;;;;;2.78;1.00;;;22.40;67.40;;;;;;5134063;27;20047;-53
2021/06/16 06:58:45;;;;;;;3.17;1.48;;;22.40;67.40;;;;;;5133920;27;20126;-54
2021/06/16 07:01:11;;;;;;;1.67;1.20;;;22.40;67.40;;;;;;5133748;27;20043;-56
2021/06/16 07:03:37;;;;;;;1.65;1.25;;;22.40;67.30;;;;;;5133287;27;20054;-56
2021/06/16 07:06:03;;;;;;;1.65;1.30;;;22.40;67.30;;;;;;5133715;27;20050;-57
2021/06/16 07:08:28;;;;;;;1.67;1.20;;;22.40;67.30;;;;;;5133897;27;20049;-62
2021/06/16 07:10:54;;;;;;;1.40;1.30;;;22.40;67.30;;;;;;5134039;27;20039;-58
2021/06/16 07:13:20;;;;;;;1.95;1.27;;;22.50;67.30;;;;;;5133513;27;20047;-55
2021/06/16 07:15:45;;;;;;;1.85;1.45;;;22.50;67.30;;;;;;5133450;27;20043;-61
2021/06/16 07:18:11;;;;;;;1.73;1.15;;;22.40;67.30;;;;;;5133311;27;20091;-59
2021/06/16 07:20:37;;;;;;;1.67;1.40;;;22.50;67.30;;;;;;5133679;27;20383;-54
2021/06/16 07:23:03;;;;;;;1.60;1.50;;;22.40;67.30;;;;;;5133592;27;20521;-59
2021/06/16 07:25:29;;;;;;;1.40;0.80;;;22.50;67.30;;;;;;5133605;27;20479;-58
2021/06/16 07:27:55;;;;;;;1.40;1.10;;;22.50;67.30;;;;;;5133719;27;20051;-57
2021/06/16 07:30:21;;;;;;;1.88;1.27;;;22.50;67.30;;;;;;5133410;27;20055;-56
2021/06/16 07:32:47;;;;;;;1.52;1.27;;;22.50;67.20;;;;;;5133569;27;20528;-43
2021/06/16 07:35:14;;;;;;;3.38;1.38;;;22.50;67.30;;;;;;5133320;27;20514;-47
2021/06/16 07:37:40;;;;;;;1.45;1.00;;;22.50;67.20;;;;;;5133376;27;20139;-46
2021/06/16 07:40:10;;;;;;;1.63;1.30;;;22.50;67.30;;;;;;5132933;27;20054;-45
2021/06/16 07:42:40;;;;;;;2.17;1.30;;;22.50;67.20;;;;;;5114946;27;20043;-49
2021/06/16 07:45:08;;;;;;;1.13;0.98;;;22.50;67.20;;;;;;5132941;27;20511;-50
2021/06/16 07:47:34;;;;;;;1.40;1.00;;;22.50;67.20;;;;;;5133328;28;20058;-50
2021/06/16 07:50:00;;;;;;;1.20;1.10;;;22.50;67.20;;;;;;5132724;28;20039;-50
2021/06/16 07:52:27;;;;;;;0.90;0.90;;;22.60;67.20;;;;;;5132895;28;20096;-49
2021/06/16 07:54:53;;;;;;;1.45;1.17;;;22.60;67.20;;;;;;5133376;28;20047;-49
2021/06/16 07:57:19;;;;;;;1.88;1.20;;;22.60;67.30;;;;;;5133146;28;20167;-50
2021/06/16 07:59:45;;;;;;;1.05;0.90;;;22.50;67.20;;;;;;5133182;28;20554;-50
2021/06/16 08:02:11;;;;;;;1.20;0.90;;;22.60;67.30;;;;;;5133028;28;20058;-47
2021/06/16 08:04:40;;;;;;;1.05;0.95;;;22.60;67.30;;;;;;5133090;28;20449;-48
2021/06/16 08:07:10;;;;;;;1.20;1.00;;;22.60;67.30;;;;;;5132533;28;20103;-50
2021/06/16 08:09:42;;;;;;;1.13;0.90;;;22.70;67.30;;;;;;5133000;28;20118;-47
2021/06/16 08:12:09;;;;;;;1.13;0.80;;;22.60;67.30;;;;;;5114392;28;20039;-49
2021/06/16 08:14:35;;;;;;;1.45;1.25;;;22.60;67.30;;;;;;5132930;28;20134;-47
2021/06/16 08:17:01;;;;;;;1.40;1.10;;;22.60;67.30;;;;;;5132909;28;20627;-48
2021/06/16 08:19:27;;;;;;;1.30;1.20;;;22.70;67.30;;;;;;5132738;28;20176;-46
2021/06/16 08:21:53;;;;;;;1.05;0.98;;;22.70;67.30;;;;;;5132168;28;20100;-49
2021/06/16 08:24:19;;;;;;;0.95;0.88;;;22.70;67.40;;;;;;5132702;28;20051;-47
2021/06/16 08:26:45;;;;;;;1.42;1.33;;;22.70;67.30;;;;;;5132465;28;20065;-49
2021/06/16 08:29:11;;;;;;;1.45;0.98;;;22.70;67.30;;;;;;5132689;28;20047;-45
2021/06/16 08:31:37;;;;;;;1.13;1.05;;;22.70;67.30;;;;;;5132773;28;20039;-46
2021/06/16 08:34:02;;;;;;;1.42;1.17;;;22.80;67.40;;;;;;5132609;28;20043;-48
2021/06/16 08:36:28;;;;;;;1.40;1.15;;;22.80;67.40;;;;;;5132274;28;20083;-49
2021/06/16 08:38:54;;;;;;;1.42;0.93;;;22.80;67.40;;;;;;5132516;28;20043;-49
2021/06/16 08:41:20;;;;;;;2.17;1.10;;;22.80;67.40;;;;;;5132720;28;20547;-50
2021/06/16 08:43:49;;;;;;;1.00;0.90;;;22.80;67.30;;;;;;5132592;28;20204;-50
2021/06/16 08:46:16;;;;;;;1.13;1.02;;;22.80;67.40;;;;;;5132466;28;20487;-49
2021/06/16 08:48:43;;;;;;;1.02;0.93;;;22.90;67.40;;;;;;5132459;28;20047;-48
2021/06/16 08:51:16;;;;;;;1.33;1.05;;;22.90;67.30;;;;;;5132310;27;20043;-47
2021/06/16 08:53:43;;;;;;;1.13;0.77;;;22.90;67.30;;;;;;5134971;27;20043;-49
2021/06/16 08:56:09;;;;;;;1.05;0.80;;;22.90;67.20;;;;;;5136164;27;20137;-46
2021/06/16 08:58:37;;;;;;;1.00;0.93;;;22.90;67.20;;;;;;5136222;27;20445;-50
2021/06/16 09:01:04;;;;;;;1.17;0.70;;;23.00;67.30;;;;;;5136291;27;20043;-47
2021/06/16 09:03:30;;;;;;;1.10;0.80;;;23.00;67.20;;;;;;5136131;27;20054;-49
2021/06/16 09:06:07;;;;;;;0.80;0.80;;;23.00;67.20;;;;;;5136033;27;20047;-52
2021/06/16 09:08:48;;;;;;;6.20;1.90;;;23.00;67.10;;;;;;5135430;27;20496;-54
2021/06/16 09:11:14;;;;;;;5.97;2.00;;;23.10;66.60;;;;;;5136036;27;20043;-55
2021/06/16 09:13:40;;;;;;;15.60;3.47;;;25.20;64.10;;;;;;5135504;27;20049;-54
2021/06/16 09:16:27;;;;;;;5.57;2.47;;;27.70;59.80;;;;;;5135201;27;20372;-54
2021/06/16 09:18:53;;;;;;;7.20;2.85;;;29.40;53.50;;;;;;5135260;27;20429;-48
2021/06/16 09:21:36;;;;;;;6.07;2.05;;;29.70;50.70;;;;;;5129989;27;20413;-46
2021/06/16 09:24:03;;;;;;;3.83;1.98;;;29.80;50.00;;;;;;5124848;27;20031;-46
2021/06/16 09:26:32;;;;;;;4.90;2.15;;;29.50;49.70;;;;;;5134668;27;20050;-41
2021/06/16 09:28:58;;;;;;;5.28;2.65;;;29.20;49.60;;;;;;5135018;27;20126;-44
2021/06/16 09:31:24;;;;;;;2.75;2.05;;;28.80;50.00;;;;;;5134766;27;20130;-47
2021/06/16 09:33:51;;;;;;;5.68;2.08;;;28.40;50.40;;;;;;5134664;27;20483;-43
2021/06/16 09:36:19;;;;;;;5.65;2.05;;;28.10;51.00;;;;;;5134540;27;20063;-40
2021/06/16 09:38:47;;;;;;;4.05;1.77;;;27.70;51.50;;;;;;5134461;27;20043;-46
2021/06/16 09:41:19;;;;;;;3.25;1.52;;;27.40;52.20;;;;;;5134979;27;20103;-45
2021/06/16 09:43:46;;;;;;;4.18;2.00;;;27.10;52.80;;;;;;5134616;27;20130;-44
2021/06/16 09:46:13;;;;;;;1.95;1.60;;;26.80;53.40;;;;;;5134849;27;20050;-52
2021/06/16 09:48:44;;;;;;;2.17;1.85;;;26.60;54.00;;;;;;5134827;27;20043;-52
2021/06/16 09:51:23;;;;;;;4.72;2.03;;;26.40;54.60;;;;;;5134902;27;20100;-46
2021/06/16 09:54:11;;;;;;;4.68;1.77;;;26.20;55.10;;;;;;5131032;27;20055;-39
2021/06/16 09:56:39;;;;;;;2.17;1.35;;;26.00;55.60;;;;;;5123146;27;20075;-49
2021/06/16 09:59:05;;;;;;;2.58;1.58;;;25.80;56.10;;;;;;5128980;27;20046;-41
2021/06/16 10:01:45;;;;;;;2.97;1.73;;;25.60;56.50;;;;;;5134395;27;20095;-43
2021/06/16 10:04:11;;;;;;;3.30;1.67;;;25.50;56.90;;;;;;5134201;27;20070;-45
2021/06/16 10:06:37;;;;;;;2.92;1.60;;;25.40;57.30;;;;;;5134636;27;20566;-48
2021/06/16 10:09:07;;;;;;;2.65;1.63;;;25.30;57.60;;;;;;5134898;27;20129;-50
2021/06/16 10:11:34;;;;;;;2.05;1.63;;;25.20;57.90;;;;;;5134653;27;20058;-47
2021/06/16 10:14:01;;;;;;;2.97;1.70;;;25.10;58.20;;;;;;5134687;27;20051;-44
2021/06/16 10:16:28;;;;;;;1.67;1.35;;;25.00;58.40;;;;;;5134905;27;20047;-45
2021/06/16 10:18:54;;;;;;;3.00;1.67;;;25.00;58.70;;;;;;5134750;27;20333;-49
2021/06/16 10:21:22;;;;;;;1.90;1.30;;;24.90;58.90;;;;;;5134650;27;20885;-46
2021/06/16 10:23:48;;;;;;;2.13;1.35;;;24.80;59.90;;;;;;5134397;27;20521;-44
2021/06/16 10:26:21;;;;;;;1.92;1.20;;;24.80;59.40;;;;;;5134408;27;20047;-47
2021/06/16 10:29:08;;;;;;;2.75;1.48;;;24.80;59.60;;;;;;5134210;27;20070;-45
2021/06/16 10:31:38;;;;;;;2.20;1.52;;;24.80;59.80;;;;;;5134282;27;20505;-41
2021/06/16 10:34:04;;;;;;;4.05;1.65;;;24.70;60.00;;;;;;5134136;27;20078;-46
2021/06/16 10:36:31;;;;;;;3.42;2.08;;;24.70;59.20;;;;;;5133721;27;20077;-44
2021/06/16 10:38:57;;;;;;;4.38;1.85;;;24.70;59.40;;;;;;5134063;27;20391;-52
2021/06/16 10:41:38;;;;;;;3.78;1.88;;;24.70;59.40;;;;;;5133878;27;20051;-55
2021/06/16 10:44:10;;;;;;;2.80;1.60;;;24.70;59.60;;;;;;5134218;27;20066;-47
2021/06/16 10:46:57;;;;;;;3.10;1.90;;;24.60;59.70;;;;;;5133986;27;20043;-43
2021/06/16 10:49:47;;;;;;;2.40;1.67;;;24.60;59.90;;;;;;5133977;27;20047;-48
2021/06/16 10:52:21;;;;;;;1.60;1.42;;;24.60;60.10;;;;;;5133716;27;20097;-54
2021/06/16 10:54:58;;;;;;;2.72;1.20;;;24.60;60.30;;;;;;5115613;27;20047;-49
2021/06/16 10:57:25;;;;;;;2.60;1.35;;;24.50;60.30;;;;;;5133224;27;20043;-51
2021/06/16 10:59:51;;;;;;;1.95;1.30;;;24.50;60.50;;;;;;5133748;27;20043;-54
2021/06/16 11:02:28;;;;;;;1.70;1.38;;;24.50;60.60;;;;;;5133790;27;20499;-53
2021/06/16 11:05:17;;;;;;;2.30;1.50;;;24.50;60.70;;;;;;5133834;27;20095;-53
2021/06/16 11:07:43;;;;;;;2.58;1.38;;;24.50;60.80;;;;;;5133662;27;20047;-52
2021/06/16 11:10:08;;;;;;;2.53;1.40;;;24.50;60.90;;;;;;5133362;27;20043;-47
2021/06/16 11:12:39;;;;;;;4.20;1.52;;;24.50;61.00;;;;;;5133330;27;20503;-49
2021/06/16 11:15:10;;;;;;;1.50;1.40;;;24.40;61.00;;;;;;5132162;27;20118;-49
2021/06/16 11:17:35;;;;;;;1.77;1.15;;;24.50;61.10;;;;;;5133270;27;20407;-48
2021/06/16 11:20:03;;;;;;;1.83;1.33;;;24.40;61.20;;;;;;5133587;27;20043;-48
2021/06/16 11:22:29;;;;;;;1.77;1.30;;;24.40;61.30;;;;;;5133334;27;20049;-46
2021/06/16 11:25:10;;;;;;;2.35;1.40;;;24.40;61.40;;;;;;5133468;27;20564;-47
2021/06/16 11:27:56;;;;;;;1.13;1.02;;;24.40;61.40;;;;;;5132833;27;20127;-48
2021/06/16 11:30:39;;;;;;;1.77;1.17;;;24.40;61.50;;;;;;5133273;27;20380;-49
2021/06/16 11:33:23;;;;;;;1.77;1.30;;;24.50;61.60;;;;;;5133128;27;20043;-48
2021/06/16 11:35:49;;;;;;;1.95;1.02;;;24.40;61.60;;;;;;5133117;27;20055;-44
2021/06/16 11:38:18;;;;;;;2.05;1.45;;;24.40;61.70;;;;;;5132937;27;20103;-49
2021/06/16 11:40:53;;;;;;;1.63;0.98;;;24.40;61.70;;;;;;5133176;27;20043;-48
2021/06/16 11:43:42;;;;;;;3.10;1.30;;;24.40;61.80;;;;;;5132787;27;20054;-48
2021/06/16 11:46:26;;;;;;;1.23;1.00;;;24.40;61.80;;;;;;5133197;27;20400;-47
2021/06/16 11:48:58;;;;;;;2.85;1.20;;;24.40;61.90;;;;;;5132838;27;20114;-45
2021/06/16 11:51:43;;;;;;;1.17;1.00;;;24.40;61.90;;;;;;5133036;28;20043;-46
2021/06/16 11:54:55;;;;;;;;;;;24.50;62.00;;;;;;5133510;28;20081;-45
2021/06/16 11:57:14;;;;;;;1.55;1.10;;;24.40;62.00;;;;;;5129794;28;19964;-47
2021/06/16 11:59:53;;;;;;;1.05;0.98;;;24.40;62.10;;;;;;5132175;28;20039;-46
2021/06/16 12:02:22;;;;;;;1.80;1.15;;;24.40;62.80;;;;;;5133007;28;20055;-47
2021/06/16 12:04:54;;;;;;;1.73;1.23;;;24.50;62.20;;;;;;5133240;28;20047;-46
2021/06/16 12:07:25;;;;;;;1.33;0.95;;;24.50;62.20;;;;;;5133195;28;20050;-44
2021/06/16 12:09:54;;;;;;;1.23;1.13;;;24.50;62.30;;;;;;5132847;28;20533;-48
2021/06/16 12:12:20;;;;;;;1.38;1.10;;;24.50;62.30;;;;;;5133069;28;20478;-45
2021/06/16 12:14:46;;;;;;;1.42;1.00;;;24.50;62.30;;;;;;5132821;28;20502;-49
2021/06/16 12:17:12;;;;;;;1.17;0.95;;;24.40;62.30;;;;;;5133189;28;20054;-46
2021/06/16 12:19:39;;;;;;;1.70;1.02;;;24.50;62.40;;;;;;5132921;28;20050;-46
2021/06/16 12:22:11;;;;;;;1.23;0.90;;;24.50;62.40;;;;;;5132622;28;20539;-45
2021/06/16 12:24:41;;;;;;;1.00;0.90;;;24.50;62.40;;;;;;5132937;28;20058;-45
2021/06/16 12:27:15;;;;;;;1.10;1.00;;;24.50;62.40;;;;;;5136978;27;20421;-47
2021/06/16 12:29:51;;;;;;;1.75;1.00;;;24.50;62.40;;;;;;5136615;27;20035;-48
2021/06/16 12:32:46;;;;;;;1.20;0.90;;;24.50;62.50;;;;;;5136451;27;20043;-53
2021/06/16 12:37:51;;;;;;;2.55;1.10;;;24.50;62.50;;;;;;5136815;27;20051;-49
2021/06/16 12:40:29;;;;;;;1.48;1.10;;;24.60;62.60;;;;;;5136242;27;20046;-48
2021/06/16 12:42:55;;;;;;;1.85;0.90;;;24.50;62.50;;;;;;5136655;27;20047;-46
2021/06/16 12:45:30;;;;;;;1.05;0.70;;;24.60;62.50;;;;;;5117852;27;20449;-44
2021/06/16 12:48:01;;;;;;;0.80;0.80;;;24.60;62.60;;;;;;5136206;27;20055;-45
2021/06/16 12:50:36;;;;;;;1.20;1.10;;;24.60;62.60;;;;;;5136110;27;20574;-47
2021/06/16 12:53:16;;;;;;;1.33;0.95;;;24.60;62.60;;;;;;5136214;27;20130;-47
2021/06/16 12:55:43;;;;;;;1.42;1.00;;;24.60;62.60;;;;;;5136358;27;20043;-52
2021/06/16 12:58:09;;;;;;;0.93;0.65;;;24.60;62.60;;;;;;5136353;27;20071;-55
2021/06/16 13:00:35;;;;;;;1.02;0.85;;;24.50;62.60;;;;;;5136277;27;20066;-56